Time;durP1;ratioP1;P1;durP2;ratioP2;P2;SDS_P1;SDS_P2;PMS_P1;PMS_P2;Temp;Humidity;BMP_temperature;BMP_pressure;BME280_temperature;BME280_humidity;BME280_pressure;Samples;Min_cycle;Max_cycle;Signal;HPM_P1;HPM_P2
2021/11/17 02:26:54;;;;;;;106.90;42.77;;;5.60;99.90;;;;;;5077288;28;20055;-72
2021/11/17 02:29:20;;;;;;;119.57;45.77;;;5.60;99.90;;;;;;5050200;28;20051;-72
2021/11/17 02:32:08;;;;;;;102.63;44.10;;;5.60;99.90;;;;;;5082614;28;20052;-72
2021/11/17 02:34:43;;;;;;;114.30;45.00;;;5.60;99.90;;;;;;5061437;28;20136;-72
2021/11/17 02:37:37;;;;;;;113.60;42.47;;;5.60;99.90;;;;;;5059473;28;20036;-72
2021/11/17 02:40:22;;;;;;;115.97;44.93;;;5.70;99.90;;;;;;5049044;28;20048;-72
2021/11/17 02:43:08;;;;;;;110.23;44.33;;;5.60;99.90;;;;;;5076832;28;20051;-72
2021/11/17 02:45:52;;;;;;;114.37;45.47;;;5.70;99.90;;;;;;5059787;28;20036;-72
2021/11/17 02:48:39;;;;;;;112.40;43.80;;;5.70;99.90;;;;;;5080945;28;20402;-72
2021/11/17 02:51:11;;;;;;;102.53;43.43;;;5.70;99.90;;;;;;5070094;28;20036;-71
2021/11/17 02:54:04;;;;;;;114.13;45.93;;;5.70;99.90;;;;;;5085052;28;20048;-72
2021/11/17 02:56:43;;;;;;;109.37;45.07;;;5.70;99.90;;;;;;5066462;28;20667;-72
2021/11/17 02:59:44;;;;;;;120.03;45.23;;;5.70;99.90;;;;;;5085366;28;20040;-72
2021/11/17 03:02:31;;;;;;;113.17;44.90;;;5.80;99.90;;;;;;5051762;28;20048;-72
2021/11/17 03:05:09;;;;;;;121.70;46.90;;;5.70;99.90;;;;;;5060065;28;20055;-72
2021/11/17 03:07:35;;;;;;;117.77;45.13;;;5.80;99.90;;;;;;5059932;28;20084;-72
2021/11/17 03:10:10;;;;;;;112.57;44.37;;;5.80;99.90;;;;;;5076815;28;20079;-72
2021/11/17 03:12:39;;;;;;;112.67;45.17;;;5.80;99.90;;;;;;5059935;28;20470;-72
2021/11/17 03:15:28;;;;;;;103.27;42.83;;;5.80;99.90;;;;;;5066921;28;20402;-73
2021/11/17 03:18:21;;;;;;;112.23;44.40;;;5.90;99.90;;;;;;5050112;28;20052;-72
2021/11/17 03:21:25;;;;;;;109.37;45.00;;;5.90;99.90;;;;;;5077668;28;20043;-72
2021/11/17 03:23:58;;;;;;;112.30;46.17;;;5.90;99.90;;;;;;5063331;28;20053;-72
2021/11/17 03:26:45;;;;;;;108.80;45.40;;;5.90;99.90;;;;;;5071980;28;20052;-72
2021/11/17 03:29:14;;;;;;;123.87;48.13;;;5.90;99.90;;;;;;5058832;28;20047;-72
2021/11/17 03:32:16;;;;;;;104.38;44.10;;;5.90;99.90;;;;;;5068994;28;20099;-72
2021/11/17 03:34:54;;;;;;;109.60;44.83;;;5.90;99.90;;;;;;5074407;28;20048;-71
2021/11/17 03:37:41;;;;;;;107.87;45.23;;;5.90;99.90;;;;;;5032701;28;20051;-71
2021/11/17 03:40:13;;;;;;;109.20;44.93;;;6.00;99.90;;;;;;5077366;28;20391;-70
2021/11/17 03:43:23;;;;;;;111.80;48.50;;;6.00;99.90;;;;;;5079438;28;20126;-71
2021/11/17 03:45:52;;;;;;;115.07;46.33;;;6.00;99.90;;;;;;5024011;28;20053;-71
2021/11/17 03:48:35;;;;;;;115.13;47.17;;;6.00;99.90;;;;;;5058311;28;20075;-72
2021/11/17 03:51:33;;;;;;;108.37;46.27;;;6.00;99.90;;;;;;5076496;28;20072;-71
2021/11/17 03:54:15;;;;;;;116.03;45.73;;;6.00;99.90;;;;;;5051716;28;20063;-72
2021/11/17 03:56:40;;;;;;;107.53;46.63;;;6.00;99.90;;;;;;5032009;28;20071;-72
2021/11/17 03:59:27;;;;;;;121.55;45.33;;;6.00;99.90;;;;;;5073745;28;20793;-72
2021/11/17 04:02:34;;;;;;;121.87;49.13;;;6.10;99.90;;;;;;5065979;28;20132;-72
2021/11/17 04:05:26;;;;;;;118.90;48.40;;;6.10;99.90;;;;;;5051945;28;20758;-72
2021/11/17 04:08:04;;;;;;;118.33;48.30;;;6.10;99.90;;;;;;5061883;28;20783;-71
2021/11/17 04:10:35;;;;;;;107.33;46.77;;;6.10;99.90;;;;;;5063335;28;20715;-72
2021/11/17 04:13:30;;;;;;;114.63;49.80;;;6.20;99.90;;;;;;5059838;28;20053;-72
2021/11/17 04:16:17;;;;;;;126.57;49.23;;;6.20;99.90;;;;;;5066905;28;20079;-71
2021/11/17 04:19:17;;;;;;;122.03;51.60;;;6.20;99.90;;;;;;5075729;28;20032;-70
2021/11/17 04:21:57;;;;;;;130.93;52.30;;;6.20;99.90;;;;;;5035944;28;20063;-70
2021/11/17 04:24:42;;;;;;;134.45;53.20;;;6.20;99.90;;;;;;5076097;28;20087;-71
2021/11/17 04:27:19;;;;;;;134.83;51.37;;;6.20;99.90;;;;;;5060579;28;20505;-72
2021/11/17 04:29:57;;;;;;;142.73;54.15;;;6.20;99.90;;;;;;5072459;28;20048;-70
2021/11/17 04:32:50;;;;;;;174.67;58.47;;;6.30;99.90;;;;;;5076945;28;20447;-72
2021/11/17 04:35:31;;;;;;;162.63;58.58;;;6.30;99.90;;;;;;5074293;28;20055;-72
2021/11/17 04:38:19;;;;;;;158.37;56.23;;;6.20;99.90;;;;;;5067295;28;20044;-72
2021/11/17 04:40:51;;;;;;;163.82;56.55;;;6.30;99.90;;;;;;5060797;28;20135;-72
2021/11/17 04:43:16;;;;;;;171.02;57.65;;;6.30;99.90;;;;;;5069866;28;20075;-71
2021/11/17 04:45:51;;;;;;;139.50;54.78;;;6.30;99.90;;;;;;5075870;28;20080;-72
2021/11/17 04:48:41;;;;;;;151.98;56.20;;;6.30;99.90;;;;;;5049926;28;20580;-71
2021/11/17 04:51:15;;;;;;;128.50;52.08;;;6.30;99.90;;;;;;5049351;28;20056;-72
2021/11/17 04:53:48;;;;;;;136.90;55.27;;;6.30;99.90;;;;;;5055524;28;20048;-72
2021/11/17 04:56:16;;;;;;;146.43;56.45;;;6.30;99.90;;;;;;5056568;28;20051;-72
2021/11/17 04:58:51;;;;;;;159.97;59.50;;;6.30;99.90;;;;;;5079675;28;20740;-71
2021/11/17 05:01:40;;;;;;;150.47;58.47;;;6.30;99.90;;;;;;5057158;28;20047;-73
2021/11/17 05:04:31;;;;;;;157.80;58.07;;;6.40;99.90;;;;;;5048188;28;20743;-71
2021/11/17 05:07:18;;;;;;;156.50;58.43;;;6.40;99.90;;;;;;5047242;28;20135;-72
2021/11/17 05:09:47;;;;;;;166.00;60.83;;;6.40;99.90;;;;;;5069436;28;20088;-71
2021/11/17 05:12:32;;;;;;;147.60;56.43;;;6.40;99.90;;;;;;5065700;28;20387;-72
2021/11/17 05:15:24;;;;;;;155.97;57.20;;;6.40;99.90;;;;;;5033663;28;20044;-71
2021/11/17 05:17:55;;;;;;;142.17;57.07;;;6.40;99.90;;;;;;5051734;28;20439;-72
2021/11/17 05:20:34;;;;;;;143.40;56.33;;;6.40;99.90;;;;;;5065009;28;20079;-71
2021/11/17 05:23:35;;;;;;;145.27;59.10;;;6.40;99.90;;;;;;5065077;28;20178;-71
2021/11/17 05:26:17;;;;;;;146.03;59.07;;;6.40;99.90;;;;;;5048924;28;20055;-71
2021/11/17 05:29:27;;;;;;;153.23;59.70;;;6.50;99.90;;;;;;5048919;28;20049;-71
2021/11/17 05:32:03;;;;;;;149.60;57.72;;;6.40;99.90;;;;;;4974492;28;20064;-70
2021/11/17 05:35:17;;;;;;;141.80;57.28;;;6.50;99.90;;;;;;5047182;28;20466;-70
2021/11/17 05:38:18;;;;;;;139.10;57.93;;;6.50;99.90;;;;;;5046503;28;20056;-71
2021/11/17 05:40:52;;;;;;;149.30;59.35;;;6.50;99.90;;;;;;5037875;28;20552;-71
2021/11/17 05:43:43;;;;;;;155.95;61.67;;;6.50;99.90;;;;;;5068564;28;20055;-71
2021/11/17 05:46:20;;;;;;;142.75;60.30;;;6.50;99.90;;;;;;5068799;28;20048;-71
2021/11/17 05:49:04;;;;;;;156.27;60.43;;;6.50;99.90;;;;;;5052697;28;20052;-71
2021/11/17 05:51:56;;;;;;;157.45;61.05;;;6.60;99.90;;;;;;5052028;28;20048;-71
2021/11/17 05:54:56;;;;;;;157.77;64.07;;;6.60;99.90;;;;;;5052606;28;20052;-71
2021/11/17 05:57:41;;;;;;;161.05;61.80;;;6.60;99.90;;;;;;5020918;28;20054;-71
2021/11/17 06:00:44;;;;;;;153.55;61.45;;;6.60;99.90;;;;;;5054079;28;20041;-72
2021/11/17 06:03:27;;;;;;;156.32;62.17;;;6.70;99.90;;;;;;5056925;28;20503;-72
2021/11/17 06:05:53;;;;;;;158.23;64.22;;;6.70;99.90;;;;;;5062769;28;20080;-71
2021/11/17 06:08:19;;;;;;;151.15;63.30;;;6.70;99.90;;;;;;5079530;28;20095;-72
2021/11/17 06:10:49;;;;;;;159.63;63.50;;;6.70;99.90;;;;;;5055671;28;20037;-71
2021/11/17 06:13:16;;;;;;;161.93;64.22;;;6.70;99.90;;;;;;5068502;28;20490;-72
2021/11/17 06:15:44;;;;;;;172.18;62.75;;;6.70;99.90;;;;;;5056497;28;20083;-72
2021/11/17 06:18:13;;;;;;;157.00;62.42;;;6.70;99.90;;;;;;5070366;28;20094;-72
2021/11/17 06:20:40;;;;;;;168.63;66.03;;;6.70;99.90;;;;;;5064103;28;20051;-72
2021/11/17 06:23:11;;;;;;;170.15;65.78;;;6.80;99.90;;;;;;5046904;28;20044;-72
2021/11/17 06:25:40;;;;;;;167.13;64.95;;;6.80;99.90;;;;;;5070987;28;20600;-72
2021/11/17 06:28:06;;;;;;;167.13;67.07;;;6.80;99.90;;;;;;5079414;28;20430;-72
2021/11/17 06:30:37;;;;;;;173.80;67.88;;;6.80;99.90;;;;;;5053503;28;20509;-71
2021/11/17 06:33:06;;;;;;;178.90;66.22;;;6.80;99.90;;;;;;5081859;28;20051;-72
2021/11/17 06:35:32;;;;;;;181.55;67.80;;;6.80;99.90;;;;;;5074460;28;20082;-72
2021/11/17 06:37:59;;;;;;;165.63;64.85;;;6.80;99.90;;;;;;5057412;28;20113;-72
2021/11/17 06:40:25;;;;;;;171.13;68.25;;;6.80;99.90;;;;;;5066415;28;20078;-71
2021/11/17 06:42:55;;;;;;;155.23;65.25;;;6.80;99.90;;;;;;5070059;28;20499;-72
2021/11/17 06:45:22;;;;;;;163.80;66.45;;;6.90;99.90;;;;;;5061275;28;20482;-72
2021/11/17 06:47:48;;;;;;;157.98;66.55;;;6.90;99.90;;;;;;5062081;28;20785;-71
2021/11/17 06:50:16;;;;;;;156.65;65.72;;;6.90;99.90;;;;;;5050766;28;20484;-72
2021/11/17 06:52:45;;;;;;;163.80;66.85;;;6.90;99.90;;;;;;5052669;28;20044;-72
2021/11/17 06:55:12;;;;;;;142.95;64.03;;;6.90;99.90;;;;;;5071606;28;20142;-72
2021/11/17 06:57:38;;;;;;;145.50;63.42;;;6.90;99.90;;;;;;5070407;28;20624;-71
2021/11/17 07:00:13;;;;;;;160.02;65.60;;;7.00;99.90;;;;;;5062868;28;20040;-71
2021/11/17 07:02:40;;;;;;;146.02;61.97;;;7.00;99.90;;;;;;5074462;28;20517;-72
2021/11/17 07:05:07;;;;;;;143.88;65.05;;;7.00;99.90;;;;;;5064398;28;20211;-72
2021/11/17 07:07:33;;;;;;;169.93;67.22;;;7.00;99.90;;;;;;5050300;28;20059;-71
2021/11/17 07:10:04;;;;;;;146.43;65.53;;;7.00;99.90;;;;;;5061336;28;20102;-72
2021/11/17 07:12:30;;;;;;;153.95;65.40;;;7.00;99.90;;;;;;5064759;28;20067;-72
2021/11/17 07:14:56;;;;;;;144.57;66.33;;;7.10;99.90;;;;;;5037877;28;20578;-72
2021/11/17 07:17:21;;;;;;;152.68;67.18;;;7.10;99.90;;;;;;5064225;28;20048;-72
2021/11/17 07:19:47;;;;;;;137.65;64.28;;;7.10;99.90;;;;;;5035449;28;20040;-72
2021/11/17 07:22:13;;;;;;;140.90;67.20;;;7.10;99.90;;;;;;5050818;28;20040;-73
2021/11/17 07:24:40;;;;;;;145.40;64.03;;;7.20;99.90;;;;;;5045426;28;20051;-71
2021/11/17 07:27:07;;;;;;;142.35;64.75;;;7.20;99.90;;;;;;5058558;28;20029;-72
2021/11/17 07:29:36;;;;;;;151.48;67.82;;;7.20;99.90;;;;;;5062042;28;20045;-72
2021/11/17 07:32:02;;;;;;;135.63;63.65;;;7.20;99.90;;;;;;5050895;28;20075;-72
2021/11/17 07:34:28;;;;;;;155.95;65.88;;;7.20;99.90;;;;;;5065846;28;20068;-71
2021/11/17 07:36:56;;;;;;;143.45;63.05;;;7.20;99.90;;;;;;5051284;28;20048;-72
2021/11/17 07:39:23;;;;;;;141.95;65.97;;;7.20;99.90;;;;;;5054210;28;20395;-71
2021/11/17 07:41:51;;;;;;;154.45;68.75;;;7.20;99.90;;;;;;5052434;28;20103;-73
2021/11/17 07:44:21;;;;;;;139.88;62.78;;;7.20;99.90;;;;;;5066419;28;20666;-74
2021/11/17 07:46:49;;;;;;;150.25;64.25;;;7.20;99.90;;;;;;5052909;28;20052;-73
2021/11/17 07:49:16;;;;;;;146.98;65.32;;;7.20;99.90;;;;;;5049506;28;20032;-73
2021/11/17 07:51:42;;;;;;;144.98;64.30;;;7.20;99.90;;;;;;5065417;28;20047;-73
2021/11/17 07:54:09;;;;;;;148.98;68.60;;;7.30;99.90;;;;;;5041330;28;20054;-71
2021/11/17 07:56:37;;;;;;;144.45;65.00;;;7.30;99.90;;;;;;5073588;28;20410;-73
2021/11/17 07:59:06;;;;;;;142.57;64.65;;;7.30;99.90;;;;;;5059364;28;20040;-73
2021/11/17 08:01:32;;;;;;;160.93;65.70;;;7.40;99.90;;;;;;5066336;28;20518;-73
2021/11/17 08:03:59;;;;;;;142.63;63.38;;;7.30;99.90;;;;;;5067435;28;20155;-73
2021/11/17 08:06:27;;;;;;;140.13;63.97;;;7.30;99.90;;;;;;5057107;28;20107;-73
2021/11/17 08:08:53;;;;;;;138.27;64.45;;;7.40;99.90;;;;;;5055171;28;20044;-73
2021/11/17 08:11:20;;;;;;;138.68;62.85;;;7.40;99.90;;;;;;5066854;28;20036;-74
2021/11/17 08:13:46;;;;;;;149.50;63.45;;;7.40;99.90;;;;;;5049064;28;20052;-73
2021/11/17 08:16:15;;;;;;;137.23;60.83;;;7.50;99.90;;;;;;5065269;28;20053;-72
2021/11/17 08:18:42;;;;;;;136.02;62.50;;;7.50;99.90;;;;;;5054327;28;20041;-72
2021/11/17 08:21:10;;;;;;;128.05;59.97;;;7.50;99.90;;;;;;5055373;28;20044;-73
2021/11/17 08:23:36;;;;;;;139.02;60.58;;;7.50;99.90;;;;;;5071381;28;20143;-73
2021/11/17 08:26:04;;;;;;;134.35;59.95;;;7.50;99.90;;;;;;5062991;28;20082;-72
2021/11/17 08:28:31;;;;;;;138.75;62.38;;;7.50;99.90;;;;;;5071915;28;20041;-73
2021/11/17 08:30:57;;;;;;;137.23;61.75;;;7.60;99.90;;;;;;5049908;28;20052;-73
2021/11/17 08:33:23;;;;;;;132.85;62.63;;;7.50;99.90;;;;;;5072400;28;20090;-73
2021/11/17 08:35:49;;;;;;;136.30;61.13;;;7.60;99.90;;;;;;5069568;28;20755;-73
2021/11/17 08:38:20;;;;;;;142.32;60.55;;;7.60;99.90;;;;;;5053073;28;20044;-72
2021/11/17 08:40:56;;;;;;;133.73;60.63;;;7.60;99.90;;;;;;5072138;28;20049;-73
2021/11/17 08:43:22;;;;;;;133.15;59.55;;;7.70;99.90;;;;;;5056130;28;20401;-73
2021/11/17 08:45:50;;;;;;;136.25;59.17;;;7.70;99.90;;;;;;5064559;28;20060;-73
2021/11/17 08:48:18;;;;;;;135.32;61.13;;;7.70;99.90;;;;;;5070733;28;20083;-73
2021/11/17 08:50:45;;;;;;;130.75;59.15;;;7.80;99.90;;;;;;5051769;28;20052;-73
2021/11/17 08:53:14;;;;;;;134.30;60.10;;;7.80;99.90;;;;;;5054000;28;20441;-73
2021/11/17 08:55:43;;;;;;;127.13;58.78;;;7.90;99.90;;;;;;5056003;28;20052;-73
2021/11/17 08:58:10;;;;;;;125.65;58.03;;;7.90;99.90;;;;;;5063797;28;20105;-72
2021/11/17 09:00:37;;;;;;;127.30;57.92;;;7.90;99.90;;;;;;5061097;28;20044;-73
2021/11/17 09:03:05;;;;;;;127.05;57.83;;;8.00;99.90;;;;;;5056447;28;20510;-73
2021/11/17 09:05:42;;;;;;;136.75;60.25;;;8.00;99.90;;;;;;5065413;28;20229;-73
2021/11/17 09:08:09;;;;;;;133.48;58.42;;;8.00;99.90;;;;;;5068967;28;21240;-73
2021/11/17 09:10:38;;;;;;;134.45;59.10;;;8.00;99.90;;;;;;5063077;28;20659;-73
2021/11/17 09:13:06;;;;;;;135.70;58.72;;;8.00;99.90;;;;;;5050583;28;20055;-73
2021/11/17 09:15:36;;;;;;;154.73;63.65;;;8.10;99.90;;;;;;5056659;28;20044;-73
2021/11/17 09:18:04;;;;;;;154.20;60.88;;;8.10;99.90;;;;;;5071836;28;20123;-74
2021/11/17 09:20:30;;;;;;;158.35;62.78;;;8.10;99.90;;;;;;5051392;28;20059;-73
2021/11/17 09:22:56;;;;;;;149.00;62.47;;;8.10;99.90;;;;;;5040453;28;20052;-73
2021/11/17 09:25:26;;;;;;;154.38;60.35;;;8.10;99.90;;;;;;5054040;28;20051;-72
2021/11/17 09:27:53;;;;;;;155.23;61.03;;;8.10;99.90;;;;;;5055911;28;20058;-72
2021/11/17 09:30:28;;;;;;;172.98;62.95;;;8.10;99.90;;;;;;5068083;28;20104;-72
2021/11/17 09:33:07;;;;;;;151.30;57.88;;;8.20;99.90;;;;;;5060218;28;20083;-72
2021/11/17 09:35:34;;;;;;;127.05;55.60;;;8.20;99.90;;;;;;5071398;28;20040;-73
2021/11/17 09:38:01;;;;;;;142.38;56.88;;;8.20;99.90;;;;;;5054755;28;20045;-73
2021/11/17 09:40:31;;;;;;;134.60;54.00;;;8.20;99.90;;;;;;5071006;28;20042;-73
2021/11/17 09:42:58;;;;;;;148.20;57.03;;;8.20;99.90;;;;;;5057402;28;20090;-72
2021/11/17 09:45:27;;;;;;;130.03;53.13;;;8.30;99.90;;;;;;5075178;28;20074;-72
2021/11/17 09:47:59;;;;;;;141.52;54.33;;;8.30;99.90;;;;;;5071658;28;20059;-72
2021/11/17 09:50:49;;;;;;;127.95;52.88;;;8.30;99.90;;;;;;5069282;28;20105;-73
2021/11/17 09:53:21;;;;;;;115.20;50.97;;;8.40;99.90;;;;;;5074441;28;20046;-72
2021/11/17 09:56:01;;;;;;;147.25;54.95;;;8.40;99.90;;;;;;5070696;28;20032;-74
2021/11/17 09:58:32;;;;;;;160.48;55.60;;;8.40;99.90;;;;;;5052196;28;20036;-73
2021/11/17 10:01:01;;;;;;;132.32;51.47;;;8.40;99.90;;;;;;5069236;28;20121;-73
2021/11/17 10:03:44;;;;;;;149.02;54.58;;;8.40;99.90;;;;;;5078893;28;20082;-73
2021/11/17 10:14:43;;;;;;;147.73;55.90;;;8.50;99.90;;;;;;5069502;28;20070;-73
2021/11/17 10:17:29;;;;;;;131.23;54.40;;;8.60;99.90;;;;;;5080182;28;21013;-74
2021/11/17 10:20:15;;;;;;;144.63;55.53;;;8.60;99.90;;;;;;5064863;28;20047;-73
2021/11/17 10:22:46;;;;;;;142.52;55.25;;;8.60;99.90;;;;;;5070226;28;20533;-73
2021/11/17 10:25:16;;;;;;;130.32;53.58;;;8.60;99.90;;;;;;5066982;28;20652;-74
2021/11/17 10:27:58;;;;;;;129.00;52.70;;;8.70;99.90;;;;;;5066663;28;20036;-74
2021/11/17 10:30:30;;;;;;;118.10;48.70;;;8.70;99.90;;;;;;5069678;28;20037;-73
2021/11/17 10:33:05;;;;;;;122.45;49.50;;;8.80;99.90;;;;;;5058873;28;20048;-73
2021/11/17 10:35:36;;;;;;;127.40;49.45;;;8.90;99.90;;;;;;5061650;28;20101;-73
2021/11/17 10:38:17;;;;;;;133.98;50.47;;;8.90;99.90;;;;;;5071439;28;20047;-74
2021/11/17 10:40:56;;;;;;;118.20;48.97;;;8.90;99.90;;;;;;5059268;28;20388;-73
2021/11/17 10:43:29;;;;;;;117.90;49.67;;;9.00;99.90;;;;;;5053355;28;20036;-73
2021/11/17 10:46:04;;;;;;;122.63;49.05;;;9.10;99.90;;;;;;5069894;28;20063;-73
2021/11/17 10:48:34;;;;;;;112.43;48.88;;;9.00;99.90;;;;;;5066825;28;20506;-72
2021/11/17 10:51:14;;;;;;;104.40;46.28;;;9.10;99.90;;;;;;5054910;28;20538;-72
2021/11/17 10:53:40;;;;;;;;;;;9.10;99.90;;;;;;5073260;28;20713;-72
2021/11/17 10:56:10;;;;;;;102.28;44.40;;;9.20;99.90;;;;;;5045785;28;19920;-72
2021/11/17 10:58:40;;;;;;;99.05;44.72;;;9.30;99.90;;;;;;5053657;28;20047;-72
2021/11/17 11:01:17;;;;;;;89.90;42.35;;;9.40;99.90;;;;;;5054907;28;20109;-72
2021/11/17 11:03:46;;;;;;;99.30;41.50;;;9.40;99.90;;;;;;5053106;28;20144;-72
2021/11/17 11:06:42;;;;;;;69.78;36.28;;;9.60;99.90;;;;;;5057878;28;20040;-72
2021/11/17 11:09:20;;;;;;;80.05;36.35;;;9.70;99.90;;;;;;5076627;28;20056;-73
2021/11/17 11:11:53;;;;;;;70.22;34.13;;;9.80;99.90;;;;;;5075071;28;20072;-73
2021/11/17 11:14:33;;;;;;;68.70;32.72;;;9.80;99.90;;;;;;5070802;28;20260;-72
2021/11/17 11:17:20;;;;;;;62.38;29.27;;;9.90;99.90;;;;;;5076883;28;20426;-72
2021/11/17 11:19:46;;;;;;;64.82;31.50;;;9.90;99.90;;;;;;5059765;28;20094;-74
2021/11/17 11:22:23;;;;;;;57.40;27.27;;;10.00;99.90;;;;;;5061945;28;20510;-73
2021/11/17 11:24:58;;;;;;;52.90;24.75;;;10.10;99.90;;;;;;5071325;28;20055;-72
2021/11/17 11:27:33;;;;;;;46.08;23.30;;;10.10;99.90;;;;;;5061115;28;20053;-73
2021/11/17 11:30:02;;;;;;;45.00;19.35;;;10.20;99.90;;;;;;5077840;28;20043;-73
2021/11/17 11:32:31;;;;;;;36.22;16.92;;;10.30;99.90;;;;;;5059678;28;20605;-72
2021/11/17 11:35:00;;;;;;;38.60;17.00;;;10.40;99.90;;;;;;5068404;28;20135;-72
2021/11/17 11:37:26;;;;;;;29.70;13.07;;;10.40;99.90;;;;;;5069543;28;20497;-73
2021/11/17 11:40:11;;;;;;;34.88;13.70;;;10.50;99.90;;;;;;5050527;28;20048;-72
2021/11/17 11:43:16;;;;;;;34.70;12.70;;;10.50;99.90;;;;;;5058365;28;20060;-72
2021/11/17 11:45:48;;;;;;;28.80;10.85;;;10.60;99.90;;;;;;5078576;28;20777;-73
2021/11/17 11:48:26;;;;;;;29.00;10.23;;;10.60;99.90;;;;;;5073725;28;20044;-72
2021/11/17 11:51:05;;;;;;;20.50;7.80;;;10.70;99.90;;;;;;5058308;28;20040;-73
2021/11/17 11:53:55;;;;;;;24.00;7.38;;;10.70;99.90;;;;;;5062762;28;20113;-73
2021/11/17 11:56:29;;;;;;;;;;;10.80;99.90;;;;;;5082095;28;20052;-73
2021/11/17 11:59:09;;;;;;;27.55;7.47;;;10.80;99.90;;;;;;5080208;28;19927;-73
2021/11/17 12:01:35;;;;;;;;;;;10.80;99.90;;;;;;5066310;28;20059;-73
2021/11/17 12:04:08;;;;;;;24.08;6.22;;;10.80;99.90;;;;;;5065559;28;19998;-72
2021/11/17 12:06:42;;;;;;;22.95;5.50;;;10.90;99.90;;;;;;5068074;28;20056;-73
2021/11/17 12:09:09;;;;;;;25.40;4.63;;;10.90;99.90;;;;;;5087256;28;20463;-72
2021/11/17 12:11:43;;;;;;;24.15;4.70;;;10.90;99.90;;;;;;5083554;28;20098;-72
2021/11/17 12:14:25;;;;;;;22.88;4.50;;;10.90;99.90;;;;;;5061312;28;20040;-73
2021/11/17 12:16:53;;;;;;;19.02;3.90;;;11.00;99.90;;;;;;5060722;28;20048;-73
2021/11/17 12:19:34;;;;;;;18.10;3.50;;;11.00;99.90;;;;;;5058631;28;20150;-72
2021/11/17 12:22:06;;;;;;;19.73;3.78;;;11.00;99.90;;;;;;5050429;28;20055;-72
2021/11/17 12:24:35;;;;;;;15.75;3.30;;;11.00;99.90;;;;;;5066112;28;20507;-72
2021/11/17 12:27:24;;;;;;;20.92;3.30;;;11.00;99.90;;;;;;5066881;28;20066;-72
2021/11/17 12:30:08;;;;;;;18.02;2.95;;;11.00;99.90;;;;;;5066095;28;20045;-72
2021/11/17 12:32:59;;;;;;;20.13;3.42;;;11.00;99.90;;;;;;5066347;28;20056;-73
2021/11/17 12:35:35;;;;;;;17.60;4.18;;;10.90;99.90;;;;;;5075380;28;20041;-73
2021/11/17 12:38:07;;;;;;;20.05;3.92;;;10.90;99.90;;;;;;5084402;28;20104;-72
2021/11/17 12:40:39;;;;;;;18.63;4.07;;;10.90;99.90;;;;;;5069238;28;20098;-72
2021/11/17 12:43:14;;;;;;;15.52;2.88;;;10.90;99.90;;;;;;5069561;28;20052;-72
2021/11/17 12:45:46;;;;;;;16.83;3.05;;;10.90;99.90;;;;;;5085592;28;20476;-73
2021/11/17 12:48:43;;;;;;;15.43;2.97;;;10.90;99.90;;;;;;5086671;28;20093;-72
2021/11/17 12:51:23;;;;;;;15.65;2.95;;;10.80;99.90;;;;;;5086735;28;20097;-72
2021/11/17 12:54:12;;;;;;;15.95;3.30;;;10.90;99.90;;;;;;5086071;28;20137;-73
2021/11/17 12:56:48;;;;;;;19.42;3.88;;;10.90;99.90;;;;;;5085359;28;20130;-73
2021/11/17 12:59:27;;;;;;;14.60;2.55;;;10.90;99.90;;;;;;5085413;28;20083;-72
2021/11/17 13:02:01;;;;;;;14.38;2.80;;;11.00;99.90;;;;;;5066356;28;20048;-72
2021/11/17 13:04:39;;;;;;;14.70;2.50;;;11.20;99.90;;;;;;5051234;28;20054;-73
2021/11/17 13:07:09;;;;;;;15.32;2.92;;;11.20;99.90;;;;;;5070530;28;20040;-73
2021/11/17 13:09:45;;;;;;;17.60;3.10;;;11.20;99.90;;;;;;5068904;28;20084;-73
2021/11/17 13:12:32;;;;;;;12.80;2.30;;;11.10;99.90;;;;;;5063672;28;20502;-73
2021/11/17 13:15:22;;;;;;;16.17;3.30;;;11.20;99.90;;;;;;5072960;28;20063;-72
2021/11/17 13:17:48;;;;;;;15.87;3.10;;;11.20;99.90;;;;;;5067440;28;20502;-73
2021/11/17 13:20:14;;;;;;;17.40;2.83;;;11.20;99.90;;;;;;5057996;28;20047;-72
2021/11/17 13:22:46;;;;;;;13.95;2.40;;;11.10;99.90;;;;;;5085535;28;20044;-73
2021/11/17 13:25:23;;;;;;;10.82;3.00;;;11.10;99.90;;;;;;5086878;28;20047;-73
2021/11/17 13:28:03;;;;;;;16.98;3.40;;;11.10;99.90;;;;;;5086511;28;20530;-72
2021/11/17 13:30:40;;;;;;;11.73;3.23;;;11.20;99.90;;;;;;5071763;28;20174;-73
2021/11/17 13:33:29;;;;;;;12.93;2.67;;;11.10;99.90;;;;;;5065914;28;20071;-73
2021/11/17 13:36:14;;;;;;;15.63;2.83;;;11.10;99.90;;;;;;5072728;28;20119;-72
2021/11/17 13:38:54;;;;;;;10.80;2.22;;;11.10;99.90;;;;;;5072749;28;20526;-73
2021/11/17 13:41:20;;;;;;;8.15;1.50;;;11.10;99.90;;;;;;5068997;28;20070;-73
2021/11/17 13:43:46;;;;;;;11.25;2.33;;;11.10;99.90;;;;;;5073892;28;20072;-72
2021/11/17 13:46:16;;;;;;;12.93;2.20;;;11.10;99.90;;;;;;5068818;28;20525;-73
2021/11/17 13:48:44;;;;;;;13.15;1.70;;;11.00;99.90;;;;;;5067397;28;20044;-72
2021/11/17 13:51:13;;;;;;;13.02;2.08;;;11.00;99.90;;;;;;5066552;28;20056;-72
2021/11/17 13:53:40;;;;;;;9.93;1.92;;;11.00;99.90;;;;;;5066373;28;20041;-74
2021/11/17 13:56:11;;;;;;;16.23;3.10;;;10.80;99.90;;;;;;5052680;28;20087;-74
2021/11/17 13:58:38;;;;;;;11.85;2.58;;;10.90;99.90;;;;;;5069895;28;20052;-74
2021/11/17 14:01:05;;;;;;;12.77;2.42;;;10.80;99.90;;;;;;5069864;28;20143;-74
2021/11/17 14:03:32;;;;;;;13.05;2.65;;;10.70;99.90;;;;;;5072869;28;20055;-73
2021/11/17 14:06:03;;;;;;;13.13;2.30;;;10.70;99.90;;;;;;5078131;28;20127;-73
2021/11/17 14:08:33;;;;;;;14.25;2.15;;;10.60;99.90;;;;;;5067687;28;20140;-73
2021/11/17 14:11:00;;;;;;;12.85;2.65;;;10.60;99.90;;;;;;5070147;28;20123;-74
2021/11/17 14:13:27;;;;;;;11.50;2.67;;;10.50;99.90;;;;;;5068287;28;20511;-73
2021/11/17 14:15:53;;;;;;;12.30;2.20;;;10.50;99.90;;;;;;5073531;28;20041;-73
2021/11/17 14:18:19;;;;;;;13.55;2.67;;;10.40;99.90;;;;;;5073286;28;20048;-73
2021/11/17 14:20:46;;;;;;;13.73;2.67;;;10.40;99.90;;;;;;5074280;28;20505;-73
2021/11/17 14:23:14;;;;;;;17.35;2.92;;;10.30;99.90;;;;;;5073019;28;20155;-73
2021/11/17 14:25:41;;;;;;;11.35;2.40;;;10.30;99.90;;;;;;5073177;28;20068;-73
2021/11/17 14:28:14;;;;;;;15.65;2.65;;;10.30;99.90;;;;;;5063446;28;20527;-73
2021/11/17 14:30:50;;;;;;;12.50;2.60;;;10.20;99.90;;;;;;5056803;28;20044;-74
2021/11/17 14:33:23;;;;;;;12.65;2.28;;;10.30;99.90;;;;;;5066766;28;20457;-73
2021/11/17 14:35:50;;;;;;;15.48;2.55;;;10.20;99.90;;;;;;5088718;28;20052;-73
2021/11/17 14:38:18;;;;;;;13.98;2.50;;;10.20;99.90;;;;;;5087219;28;20517;-73
2021/11/17 14:40:46;;;;;;;12.50;2.45;;;10.20;99.90;;;;;;5052006;28;20040;-73
2021/11/17 14:43:12;;;;;;;13.00;2.58;;;10.10;99.90;;;;;;5052436;28;20052;-73
2021/11/17 14:45:40;;;;;;;13.93;2.40;;;10.00;99.90;;;;;;5033635;28;20098;-73
2021/11/17 14:48:06;;;;;;;11.80;2.35;;;10.00;99.90;;;;;;5057075;28;20483;-73
2021/11/17 14:50:32;;;;;;;14.82;2.97;;;9.90;99.90;;;;;;5050926;28;20078;-73
2021/11/17 14:52:57;;;;;;;13.50;2.40;;;9.80;99.90;;;;;;5062943;28;20339;-73
2021/11/17 14:55:26;;;;;;;16.33;2.78;;;9.80;99.90;;;;;;5068129;28;20072;-73
2021/11/17 14:57:53;;;;;;;15.40;3.40;;;9.70;99.90;;;;;;5067397;28;20056;-74
2021/11/17 15:00:36;;;;;;;9.90;1.85;;;9.60;99.90;;;;;;5051214;28;20055;-73
2021/11/17 15:03:02;;;;;;;10.93;1.88;;;9.60;99.90;;;;;;5067842;28;20067;-73
2021/11/17 15:05:32;;;;;;;10.35;1.60;;;9.60;99.90;;;;;;5067576;28;20048;-73
2021/11/17 15:08:01;;;;;;;10.15;2.15;;;9.50;99.90;;;;;;5050210;28;20041;-73
2021/11/17 15:10:27;;;;;;;11.35;1.90;;;9.40;99.90;;;;;;5050135;28;20047;-73
2021/11/17 15:12:53;;;;;;;10.65;1.60;;;9.40;99.90;;;;;;5028521;28;20039;-73
2021/11/17 15:15:32;;;;;;;15.05;2.70;;;9.30;99.90;;;;;;5070322;28;20055;-74
2021/11/17 15:17:59;;;;;;;10.43;2.22;;;9.20;99.90;;;;;;5086554;28;20055;-73
2021/11/17 15:20:26;;;;;;;11.43;2.05;;;9.10;99.90;;;;;;5050415;28;20079;-72
2021/11/17 15:22:52;;;;;;;12.25;2.25;;;9.00;99.90;;;;;;5079525;28;20048;-73
2021/11/17 15:25:34;;;;;;;10.43;1.90;;;8.90;99.90;;;;;;5050643;28;20044;-73
2021/11/17 15:28:31;;;;;;;12.05;2.67;;;8.80;99.90;;;;;;5067234;28;20119;-73
2021/11/17 15:31:06;;;;;;;10.40;2.40;;;8.70;99.90;;;;;;5052838;28;20048;-73
2021/11/17 15:33:36;;;;;;;13.23;2.20;;;8.70;99.90;;;;;;5063263;28;20455;-72
2021/11/17 15:36:03;;;;;;;8.60;1.65;;;8.60;99.90;;;;;;5073653;28;20452;-72
2021/11/17 15:38:30;;;;;;;16.33;2.65;;;8.50;99.90;;;;;;5070317;28;20398;-73
2021/11/17 15:40:59;;;;;;;8.63;1.45;;;8.50;99.90;;;;;;5049232;28;20147;-72
2021/11/17 15:43:26;;;;;;;11.20;1.98;;;8.50;99.90;;;;;;5064910;28;20048;-73
2021/11/17 15:45:54;;;;;;;10.25;1.75;;;8.40;99.90;;;;;;5077408;28;20504;-73